sensor_id;sensor_type;location;lat;lon;timestamp;pressure;altitude;pressure_sealevel;temperature;humidity
33075;BME280;19433;51.292;6.868;2023-07-22T00:01:33;100256.59;;;13.18;86.07
33075;BME280;19433;51.292;6.868;2023-07-22T00:03:58;100241.88;;;13.18;87.41
33075;BME280;19433;51.292;6.868;2023-07-22T00:06:23;100257.31;;;13.32;86.94
33075;BME280;19433;51.292;6.868;2023-07-22T00:08:50;100256.69;;;13.30;86.67
33075;BME280;19433;51.292;6.868;2023-07-22T00:11:15;100259.13;;;13.20;87.32
33075;BME280;19433;51.292;6.868;2023-07-22T00:13:40;100253.59;;;13.20;88.33
33075;BME280;19433;51.292;6.868;2023-07-22T00:16:06;100255.03;;;13.29;87.53
33075;BME280;19433;51.292;6.868;2023-07-22T00:18:33;100252.97;;;13.43;87.64
33075;BME280;19433;51.292;6.868;2023-07-22T00:20:59;100259.84;;;13.58;86.49
33075;BME280;19433;51.292;6.868;2023-07-22T00:23:24;100253.53;;;13.69;85.35
33075;BME280;19433;51.292;6.868;2023-07-22T00:25:50;100250.53;;;13.71;85.46
33075;BME280;19433;51.292;6.868;2023-07-22T00:28:16;100249.69;;;13.70;85.74
33075;BME280;19433;51.292;6.868;2023-07-22T00:30:42;100256.69;;;13.55;86.38
33075;BME280;19433;51.292;6.868;2023-07-22T00:33:08;100252.13;;;13.60;86.21
33075;BME280;19433;51.292;6.868;2023-07-22T00:35:34;100247.41;;;13.61;86.17
33075;BME280;19433;51.292;6.868;2023-07-22T00:38:00;100254.84;;;13.67;86.02
33075;BME280;19433;51.292;6.868;2023-07-22T00:40:26;100254.38;;;13.70;86.24
33075;BME280;19433;51.292;6.868;2023-07-22T00:42:51;100249.81;;;13.76;85.54
33075;BME280;19433;51.292;6.868;2023-07-22T00:45:17;100238.81;;;13.69;86.03
33075;BME280;19433;51.292;6.868;2023-07-22T00:47:43;100236.03;;;13.69;86.24
33075;BME280;19433;51.292;6.868;2023-07-22T00:50:09;100245.38;;;13.75;86.38
33075;BME280;19433;51.292;6.868;2023-07-22T00:52:35;100240.34;;;13.83;86.48
33075;BME280;19433;51.292;6.868;2023-07-22T00:55:01;100240.72;;;13.68;87.54
33075;BME280;19433;51.292;6.868;2023-07-22T00:57:26;100236.88;;;13.69;87.78
33075;BME280;19433;51.292;6.868;2023-07-22T00:59:52;100242.81;;;13.73;87.21
33075;BME280;19433;51.292;6.868;2023-07-22T01:02:18;100233.94;;;13.83;86.76
33075;BME280;19433;51.292;6.868;2023-07-22T01:04:44;100246.59;;;13.97;86.70
33075;BME280;19433;51.292;6.868;2023-07-22T01:07:10;100244.72;;;13.91;87.69
33075;BME280;19433;51.292;6.868;2023-07-22T01:09:39;100236.56;;;13.78;87.31
33075;BME280;19433;51.292;6.868;2023-07-22T01:12:06;100230.88;;;13.72;87.24
33075;BME280;19433;51.292;6.868;2023-07-22T01:14:33;100224.81;;;13.76;88.08
33075;BME280;19433;51.292;6.868;2023-07-22T01:17:01;100232.94;;;13.77;87.50
33075;BME280;19433;51.292;6.868;2023-07-22T01:19:27;100220.59;;;13.73;86.55
33075;BME280;19433;51.292;6.868;2023-07-22T01:21:53;100216.44;;;13.82;87.29
33075;BME280;19433;51.292;6.868;2023-07-22T01:24:19;100219.88;;;13.78;88.87
33075;BME280;19433;51.292;6.868;2023-07-22T01:26:44;100231.22;;;13.76;87.26
33075;BME280;19433;51.292;6.868;2023-07-22T01:29:09;100223.47;;;13.85;89.60
33075;BME280;19433;51.292;6.868;2023-07-22T01:31:35;100227.69;;;13.87;89.11
33075;BME280;19433;51.292;6.868;2023-07-22T01:34:03;100225.28;;;13.91;90.33
33075;BME280;19433;51.292;6.868;2023-07-22T01:36:31;100234.25;;;13.93;89.72
33075;BME280;19433;51.292;6.868;2023-07-22T01:38:57;100228.22;;;13.96;88.38
33075;BME280;19433;51.292;6.868;2023-07-22T01:41:22;100230.25;;;13.89;87.34
33075;BME280;19433;51.292;6.868;2023-07-22T01:43:48;100226.00;;;13.86;87.98
33075;BME280;19433;51.292;6.868;2023-07-22T01:46:14;100226.69;;;13.82;88.47
33075;BME280;19433;51.292;6.868;2023-07-22T01:48:39;100214.56;;;13.76;88.21
33075;BME280;19433;51.292;6.868;2023-07-22T01:51:04;100220.22;;;13.69;89.66
33075;BME280;19433;51.292;6.868;2023-07-22T01:53:30;100217.22;;;13.71;89.06
33075;BME280;19433;51.292;6.868;2023-07-22T01:55:55;100222.22;;;13.81;87.58
33075;BME280;19433;51.292;6.868;2023-07-22T01:58:21;100221.47;;;13.73;88.59
33075;BME280;19433;51.292;6.868;2023-07-22T02:00:50;100216.19;;;13.65;89.08
33075;BME280;19433;51.292;6.868;2023-07-22T02:03:16;100219.81;;;13.66;88.99
33075;BME280;19433;51.292;6.868;2023-07-22T02:05:41;100217.22;;;13.71;88.57
33075;BME280;19433;51.292;6.868;2023-07-22T02:08:06;100227.38;;;13.77;88.46
33075;BME280;19433;51.292;6.868;2023-07-22T02:10:31;100219.44;;;13.62;88.86
33075;BME280;19433;51.292;6.868;2023-07-22T02:12:57;100218.41;;;13.75;88.35
33075;BME280;19433;51.292;6.868;2023-07-22T02:15:22;100215.75;;;13.68;87.55
33075;BME280;19433;51.292;6.868;2023-07-22T02:17:49;100223.22;;;13.86;87.27
33075;BME280;19433;51.292;6.868;2023-07-22T02:20:14;100217.75;;;13.80;86.95
33075;BME280;19433;51.292;6.868;2023-07-22T02:22:40;100214.34;;;13.78;87.34
33075;BME280;19433;51.292;6.868;2023-07-22T02:25:05;100220.44;;;13.68;87.85
33075;BME280;19433;51.292;6.868;2023-07-22T02:27:31;100209.63;;;13.78;87.04
33075;BME280;19433;51.292;6.868;2023-07-22T02:29:57;100219.38;;;13.87;86.65
33075;BME280;19433;51.292;6.868;2023-07-22T02:32:22;100214.34;;;13.78;86.92
33075;BME280;19433;51.292;6.868;2023-07-22T02:34:47;100219.75;;;13.72;87.64
33075;BME280;19433;51.292;6.868;2023-07-22T02:37:12;100210.94;;;13.76;86.92
33075;BME280;19433;51.292;6.868;2023-07-22T02:39:38;100217.28;;;13.83;86.16
33075;BME280;19433;51.292;6.868;2023-07-22T02:42:03;100229.00;;;13.85;86.22
33075;BME280;19433;51.292;6.868;2023-07-22T02:44:28;100211.41;;;13.91;85.37
33075;BME280;19433;51.292;6.868;2023-07-22T02:46:54;100227.53;;;13.82;86.07
33075;BME280;19433;51.292;6.868;2023-07-22T02:49:19;100219.38;;;13.87;85.39
33075;BME280;19433;51.292;6.868;2023-07-22T02:51:45;100221.66;;;13.90;85.04
33075;BME280;19433;51.292;6.868;2023-07-22T02:54:10;100223.50;;;13.96;84.38
33075;BME280;19433;51.292;6.868;2023-07-22T02:56:35;100227.75;;;13.99;84.20
33075;BME280;19433;51.292;6.868;2023-07-22T02:59:00;100226.00;;;14.04;83.81
33075;BME280;19433;51.292;6.868;2023-07-22T03:01:26;100226.53;;;13.95;84.79
33075;BME280;19433;51.292;6.868;2023-07-22T03:03:51;100229.41;;;13.88;85.10
33075;BME280;19433;51.292;6.868;2023-07-22T03:06:16;100229.16;;;13.90;84.90
33075;BME280;19433;51.292;6.868;2023-07-22T03:08:42;100224.59;;;13.77;85.22
33075;BME280;19433;51.292;6.868;2023-07-22T03:11:07;100226.53;;;13.77;85.04
33075;BME280;19433;51.292;6.868;2023-07-22T03:13:32;100229.91;;;13.79;85.02
33075;BME280;19433;51.292;6.868;2023-07-22T03:15:59;100224.53;;;13.65;86.05
33075;BME280;19433;51.292;6.868;2023-07-22T03:18:24;100222.06;;;13.76;84.87
33075;BME280;19433;51.292;6.868;2023-07-22T03:20:49;100232.94;;;13.77;84.65
33075;BME280;19433;51.292;6.868;2023-07-22T03:23:14;100230.25;;;13.70;85.38
33075;BME280;19433;51.292;6.868;2023-07-22T03:25:40;100224.81;;;13.76;84.34
33075;BME280;19433;51.292;6.868;2023-07-22T03:28:06;100234.94;;;13.88;83.95
33075;BME280;19433;51.292;6.868;2023-07-22T03:30:32;100242.88;;;13.85;83.50
33075;BME280;19433;51.292;6.868;2023-07-22T03:32:58;100238.84;;;13.62;84.44
33075;BME280;19433;51.292;6.868;2023-07-22T03:35:23;100229.53;;;13.57;84.60
33075;BME280;19433;51.292;6.868;2023-07-22T03:37:49;100238.59;;;13.46;85.27
33075;BME280;19433;51.292;6.868;2023-07-22T03:40:14;100242.94;;;13.60;84.21
33075;BME280;19433;51.292;6.868;2023-07-22T03:42:47;100236.94;;;13.81;82.71
33075;BME280;19433;51.292;6.868;2023-07-22T03:45:12;100242.50;;;13.81;83.32
33075;BME280;19433;51.292;6.868;2023-07-22T03:47:39;100240.34;;;13.65;83.26
33075;BME280;19433;51.292;6.868;2023-07-22T03:50:05;100242.22;;;13.46;84.63
33075;BME280;19433;51.292;6.868;2023-07-22T03:52:31;100230.63;;;13.56;84.22
33075;BME280;19433;51.292;6.868;2023-07-22T03:54:56;100235.56;;;13.54;83.80
33075;BME280;19433;51.292;6.868;2023-07-22T03:57:25;100239.00;;;13.49;84.70
33075;BME280;19433;51.292;6.868;2023-07-22T03:59:51;100235.78;;;13.70;83.27
33075;BME280;19433;51.292;6.868;2023-07-22T04:02:17;100244.97;;;13.71;83.49
33075;BME280;19433;51.292;6.868;2023-07-22T04:04:42;100241.25;;;13.41;84.76
33075;BME280;19433;51.292;6.868;2023-07-22T04:07:07;100224.81;;;13.76;82.74
33075;BME280;19433;51.292;6.868;2023-07-22T04:09:34;100233.25;;;13.87;82.35
33075;BME280;19433;51.292;6.868;2023-07-22T04:11:59;100242.09;;;13.96;81.88
33075;BME280;19433;51.292;6.868;2023-07-22T04:14:24;100245.84;;;13.90;82.43
33075;BME280;19433;51.292;6.868;2023-07-22T04:16:50;100235.03;;;13.82;82.52
33075;BME280;19433;51.292;6.868;2023-07-22T04:19:15;100240.63;;;13.75;83.22
33075;BME280;19433;51.292;6.868;2023-07-22T04:21:41;100236.88;;;13.69;83.85
33075;BME280;19433;51.292;6.868;2023-07-22T04:24:07;100242.72;;;13.61;84.48
33075;BME280;19433;51.292;6.868;2023-07-22T04:26:32;100248.88;;;13.63;84.66
33075;BME280;19433;51.292;6.868;2023-07-22T04:28:57;100244.19;;;13.64;83.99
33075;BME280;19433;51.292;6.868;2023-07-22T04:31:22;100246.91;;;13.70;83.78
33075;BME280;19433;51.292;6.868;2023-07-22T04:33:48;100254.47;;;13.82;83.26
33075;BME280;19433;51.292;6.868;2023-07-22T04:36:13;100251.84;;;13.87;83.68
33075;BME280;19433;51.292;6.868;2023-07-22T04:38:38;100258.38;;;13.92;83.20
33075;BME280;19433;51.292;6.868;2023-07-22T04:41:04;100257.06;;;13.95;83.25
33075;BME280;19433;51.292;6.868;2023-07-22T04:43:30;100251.91;;;13.98;83.17
33075;BME280;19433;51.292;6.868;2023-07-22T04:45:55;100256.78;;;13.85;83.81
33075;BME280;19433;51.292;6.868;2023-07-22T04:48:21;100256.00;;;13.78;84.61
33075;BME280;19433;51.292;6.868;2023-07-22T04:50:50;100266.00;;;13.60;85.08
33075;BME280;19433;51.292;6.868;2023-07-22T04:53:17;100253.22;;;13.96;84.50
33075;BME280;19433;51.292;6.868;2023-07-22T04:55:42;100255.19;;;14.25;82.77
33075;BME280;19433;51.292;6.868;2023-07-22T04:58:08;100248.09;;;14.29;82.79
33075;BME280;19433;51.292;6.868;2023-07-22T05:00:34;100240.44;;;14.25;82.44
33075;BME280;19433;51.292;6.868;2023-07-22T05:03:02;100254.81;;;14.40;82.04
33075;BME280;19433;51.292;6.868;2023-07-22T05:05:27;100255.59;;;14.47;82.20
33075;BME280;19433;51.292;6.868;2023-07-22T05:07:53;100255.91;;;14.69;80.96
33075;BME280;19433;51.292;6.868;2023-07-22T05:10:18;100253.22;;;14.62;81.41
33075;BME280;19433;51.292;6.868;2023-07-22T05:12:44;100235.81;;;14.67;81.45
33075;BME280;19433;51.292;6.868;2023-07-22T05:15:10;100239.94;;;14.64;80.99
33075;BME280;19433;51.292;6.868;2023-07-22T05:17:36;100262.31;;;14.69;81.58
33075;BME280;19433;51.292;6.868;2023-07-22T05:20:02;100245.00;;;14.67;81.22
33075;BME280;19433;51.292;6.868;2023-07-22T05:22:29;100250.22;;;14.64;82.36
33075;BME280;19433;51.292;6.868;2023-07-22T05:24:54;100255.78;;;14.64;82.38
33075;BME280;19433;51.292;6.868;2023-07-22T05:27:19;100245.75;;;14.74;81.65
33075;BME280;19433;51.292;6.868;2023-07-22T05:29:44;100255.84;;;14.99;80.37
33075;BME280;19433;51.292;6.868;2023-07-22T05:32:10;100251.25;;;14.93;80.94
33075;BME280;19433;51.292;6.868;2023-07-22T05:34:36;100252.84;;;15.00;80.01
33075;BME280;19433;51.292;6.868;2023-07-22T05:37:01;100255.75;;;15.05;80.53
33075;BME280;19433;51.292;6.868;2023-07-22T05:39:27;100265.81;;;15.18;80.70
33075;BME280;19433;51.292;6.868;2023-07-22T05:41:52;100267.53;;;15.31;79.45
33075;BME280;19433;51.292;6.868;2023-07-22T05:44:17;100266.19;;;15.33;79.82
33075;BME280;19433;51.292;6.868;2023-07-22T05:46:42;100257.13;;;15.38;79.16
33075;BME280;19433;51.292;6.868;2023-07-22T05:49:09;100268.50;;;15.48;78.47
33075;BME280;19433;51.292;6.868;2023-07-22T05:51:34;100274.38;;;15.70;76.67
33075;BME280;19433;51.292;6.868;2023-07-22T05:53:59;100263.44;;;15.92;76.30
33075;BME280;19433;51.292;6.868;2023-07-22T05:56:25;100252.59;;;16.18;75.11
33075;BME280;19433;51.292;6.868;2023-07-22T05:58:51;100267.41;;;16.47;72.91
33075;BME280;19433;51.292;6.868;2023-07-22T06:01:16;100278.06;;;16.50;73.16
33075;BME280;19433;51.292;6.868;2023-07-22T06:03:41;100273.66;;;16.66;72.59
33075;BME280;19433;51.292;6.868;2023-07-22T06:06:07;100261.09;;;16.80;72.56
33075;BME280;19433;51.292;6.868;2023-07-22T06:08:32;100269.22;;;17.10;70.98
33075;BME280;19433;51.292;6.868;2023-07-22T06:10:57;100275.22;;;17.19;71.18
33075;BME280;19433;51.292;6.868;2023-07-22T06:13:23;100269.63;;;17.19;70.40
33075;BME280;19433;51.292;6.868;2023-07-22T06:15:48;100276.56;;;17.50;69.45
33075;BME280;19433;51.292;6.868;2023-07-22T06:18:13;100272.31;;;17.81;67.73
33075;BME280;19433;51.292;6.868;2023-07-22T06:20:39;100284.59;;;17.63;67.29
33075;BME280;19433;51.292;6.868;2023-07-22T06:23:04;100279.44;;;17.55;67.11
33075;BME280;19433;51.292;6.868;2023-07-22T06:25:30;100280.72;;;17.81;67.20
33075;BME280;19433;51.292;6.868;2023-07-22T06:27:55;100280.63;;;18.36;64.81
33075;BME280;19433;51.292;6.868;2023-07-22T06:30:21;100273.88;;;18.32;65.25
33075;BME280;19433;51.292;6.868;2023-07-22T06:32:46;100279.00;;;18.40;65.93
33075;BME280;19433;51.292;6.868;2023-07-22T06:35:12;100273.19;;;18.64;64.61
33075;BME280;19433;51.292;6.868;2023-07-22T06:37:37;100272.03;;;18.86;61.99
33075;BME280;19433;51.292;6.868;2023-07-22T06:40:03;100282.53;;;19.01;60.61
33075;BME280;19433;51.292;6.868;2023-07-22T06:42:29;100281.50;;;19.12;60.74
33075;BME280;19433;51.292;6.868;2023-07-22T06:44:55;100280.63;;;19.07;60.75
33075;BME280;19433;51.292;6.868;2023-07-22T06:47:20;100278.56;;;18.97;58.67
33075;BME280;19433;51.292;6.868;2023-07-22T06:49:46;100279.56;;;18.86;59.50
33075;BME280;19433;51.292;6.868;2023-07-22T06:52:11;100275.53;;;19.30;59.42
33075;BME280;19433;51.292;6.868;2023-07-22T06:54:36;100281.25;;;19.46;57.33
33075;BME280;19433;51.292;6.868;2023-07-22T06:57:02;100286.72;;;19.30;58.89
33075;BME280;19433;51.292;6.868;2023-07-22T06:59:27;100280.81;;;19.54;57.70
33075;BME280;19433;51.292;6.868;2023-07-22T07:01:52;100291.81;;;20.55;54.71
33075;BME280;19433;51.292;6.868;2023-07-22T07:04:18;100287.44;;;21.10;51.55
33075;BME280;19433;51.292;6.868;2023-07-22T07:06:43;100284.13;;;22.04;49.34
33075;BME280;19433;51.292;6.868;2023-07-22T07:09:08;100285.88;;;22.64;47.04
33075;BME280;19433;51.292;6.868;2023-07-22T07:11:34;100276.53;;;23.23;47.43
33075;BME280;19433;51.292;6.868;2023-07-22T07:13:59;100283.88;;;23.92;43.13
33075;BME280;19433;51.292;6.868;2023-07-22T07:16:26;100290.59;;;24.49;43.13
33075;BME280;19433;51.292;6.868;2023-07-22T07:18:53;100294.72;;;24.80;41.59
33075;BME280;19433;51.292;6.868;2023-07-22T07:21:19;100299.06;;;24.97;40.35
33075;BME280;19433;51.292;6.868;2023-07-22T07:23:44;100306.44;;;25.68;40.11
33075;BME280;19433;51.292;6.868;2023-07-22T07:26:10;100307.59;;;25.67;38.39
33075;BME280;19433;51.292;6.868;2023-07-22T07:28:35;100309.00;;;24.70;39.69
33075;BME280;19433;51.292;6.868;2023-07-22T07:31:01;100313.28;;;25.29;39.78
33075;BME280;19433;51.292;6.868;2023-07-22T07:33:26;100303.03;;;26.17;37.99
33075;BME280;19433;51.292;6.868;2023-07-22T07:35:51;100311.16;;;26.78;36.68
33075;BME280;19433;51.292;6.868;2023-07-22T07:38:16;100316.47;;;27.35;35.01
33075;BME280;19433;51.292;6.868;2023-07-22T07:40:42;100319.88;;;28.34;33.79
33075;BME280;19433;51.292;6.868;2023-07-22T07:43:07;100312.44;;;27.00;35.45
33075;BME280;19433;51.292;6.868;2023-07-22T07:45:33;100306.78;;;25.29;38.20
33075;BME280;19433;51.292;6.868;2023-07-22T07:47:58;100297.84;;;23.78;41.19
33075;BME280;19433;51.292;6.868;2023-07-22T07:50:23;100297.13;;;22.74;45.10
33075;BME280;19433;51.292;6.868;2023-07-22T07:52:49;100295.66;;;22.87;44.23
33075;BME280;19433;51.292;6.868;2023-07-22T07:55:14;100302.13;;;22.13;45.39
33075;BME280;19433;51.292;6.868;2023-07-22T07:57:39;100301.03;;;21.84;46.62
33075;BME280;19433;51.292;6.868;2023-07-22T08:00:05;100305.19;;;22.22;46.15
33075;BME280;19433;51.292;6.868;2023-07-22T08:02:32;100311.41;;;21.98;46.93
33075;BME280;19433;51.292;6.868;2023-07-22T08:04:58;100301.84;;;22.09;46.15
33075;BME280;19433;51.292;6.868;2023-07-22T08:07:23;100303.44;;;22.36;46.09
33075;BME280;19433;51.292;6.868;2023-07-22T08:09:48;100304.19;;;23.21;44.64
33075;BME280;19433;51.292;6.868;2023-07-22T08:12:14;100305.78;;;25.01;41.07
33075;BME280;19433;51.292;6.868;2023-07-22T08:14:39;100308.03;;;26.39;37.61
33075;BME280;19433;51.292;6.868;2023-07-22T08:17:05;100311.31;;;27.23;35.57
33075;BME280;19433;51.292;6.868;2023-07-22T08:19:30;100325.31;;;28.93;33.14
33075;BME280;19433;51.292;6.868;2023-07-22T08:21:56;100321.25;;;29.77;31.19
33075;BME280;19433;51.292;6.868;2023-07-22T08:24:21;100319.56;;;29.41;31.65
33075;BME280;19433;51.292;6.868;2023-07-22T08:26:46;100317.34;;;30.16;31.16
33075;BME280;19433;51.292;6.868;2023-07-22T08:29:12;100318.53;;;29.89;31.09
33075;BME280;19433;51.292;6.868;2023-07-22T08:31:37;100319.38;;;30.06;30.44
33075;BME280;19433;51.292;6.868;2023-07-22T08:34:02;100315.69;;;30.06;30.77
33075;BME280;19433;51.292;6.868;2023-07-22T08:36:28;100323.41;;;30.05;30.11
33075;BME280;19433;51.292;6.868;2023-07-22T08:38:53;100320.94;;;30.42;30.22
33075;BME280;19433;51.292;6.868;2023-07-22T08:41:19;100325.53;;;31.10;28.90
33075;BME280;19433;51.292;6.868;2023-07-22T08:43:45;100318.22;;;29.64;30.17
33075;BME280;19433;51.292;6.868;2023-07-22T08:46:12;100321.06;;;29.56;30.35
33075;BME280;19433;51.292;6.868;2023-07-22T08:48:41;100318.22;;;29.90;30.41
33075;BME280;19433;51.292;6.868;2023-07-22T08:51:10;100316.78;;;30.39;29.78
33075;BME280;19433;51.292;6.868;2023-07-22T08:53:38;100317.91;;;29.57;30.47
33075;BME280;19433;51.292;6.868;2023-07-22T08:56:04;100317.91;;;28.44;31.22
33075;BME280;19433;51.292;6.868;2023-07-22T08:58:30;100319.63;;;28.00;32.32
33075;BME280;19433;51.292;6.868;2023-07-22T09:00:55;100316.81;;;28.62;31.82
33075;BME280;19433;51.292;6.868;2023-07-22T09:03:21;100308.25;;;27.55;32.38
33075;BME280;19433;51.292;6.868;2023-07-22T09:05:47;100302.38;;;27.88;32.66
33075;BME280;19433;51.292;6.868;2023-07-22T09:08:13;100303.31;;;28.67;31.99
33075;BME280;19433;51.292;6.868;2023-07-22T09:10:38;100307.78;;;28.99;30.79
33075;BME280;19433;51.292;6.868;2023-07-22T09:13:04;100313.63;;;28.55;30.94
33075;BME280;19433;51.292;6.868;2023-07-22T09:15:34;100312.50;;;28.33;31.68
33075;BME280;19433;51.292;6.868;2023-07-22T09:18:01;100315.16;;;29.18;31.60
33075;BME280;19433;51.292;6.868;2023-07-22T09:20:26;100307.78;;;27.76;32.42
33075;BME280;19433;51.292;6.868;2023-07-22T09:22:53;100299.53;;;27.52;33.45
33075;BME280;19433;51.292;6.868;2023-07-22T09:25:20;100313.13;;;28.53;32.03
33075;BME280;19433;51.292;6.868;2023-07-22T09:27:47;100308.38;;;28.88;30.42
33075;BME280;19433;51.292;6.868;2023-07-22T09:30:23;100298.47;;;27.84;32.25
33075;BME280;19433;51.292;6.868;2023-07-22T09:32:49;100309.47;;;29.18;30.82
33075;BME280;19433;51.292;6.868;2023-07-22T09:35:15;100309.16;;;29.28;29.92
33075;BME280;19433;51.292;6.868;2023-07-22T09:37:40;100304.63;;;27.77;31.67
33075;BME280;19433;51.292;6.868;2023-07-22T09:40:18;100302.03;;;26.81;33.66
33075;BME280;19433;51.292;6.868;2023-07-22T09:42:52;100289.13;;;26.34;34.83
33075;BME280;19433;51.292;6.868;2023-07-22T09:45:19;100289.25;;;25.97;35.18
33075;BME280;19433;51.292;6.868;2023-07-22T09:47:47;100284.75;;;25.44;35.98
33075;BME280;19433;51.292;6.868;2023-07-22T09:50:17;100279.63;;;24.24;37.31
33075;BME280;19433;51.292;6.868;2023-07-22T09:52:48;100272.56;;;23.97;39.02
33075;BME280;19433;51.292;6.868;2023-07-22T09:55:15;100275.19;;;24.41;38.72
33075;BME280;19433;51.292;6.868;2023-07-22T09:57:44;100283.06;;;25.43;36.50
33075;BME280;19433;51.292;6.868;2023-07-22T10:00:12;100291.88;;;26.53;34.58
33075;BME280;19433;51.292;6.868;2023-07-22T10:02:41;100287.53;;;27.91;32.11
33075;BME280;19433;51.292;6.868;2023-07-22T10:05:14;100301.91;;;29.04;30.87
33075;BME280;19433;51.292;6.868;2023-07-22T10:07:44;100296.91;;;29.01;30.01
33075;BME280;19433;51.292;6.868;2023-07-22T10:10:11;100285.22;;;29.29;29.77
33075;BME280;19433;51.292;6.868;2023-07-22T10:12:39;100297.28;;;30.41;28.66
33075;BME280;19433;51.292;6.868;2023-07-22T10:15:05;100297.47;;;32.29;26.42
33075;BME280;19433;51.292;6.868;2023-07-22T10:17:31;100303.81;;;32.71;25.13
33075;BME280;19433;51.292;6.868;2023-07-22T10:19:56;100298.31;;;31.34;26.72
33075;BME280;19433;51.292;6.868;2023-07-22T10:22:23;100305.31;;;32.32;26.15
33075;BME280;19433;51.292;6.868;2023-07-22T10:24:49;100303.31;;;32.44;24.92
33075;BME280;19433;51.292;6.868;2023-07-22T10:27:15;100298.94;;;32.59;25.44
33075;BME280;19433;51.292;6.868;2023-07-22T10:29:42;100290.91;;;32.40;25.59
33075;BME280;19433;51.292;6.868;2023-07-22T10:32:10;100292.34;;;33.19;24.63
33075;BME280;19433;51.292;6.868;2023-07-22T10:34:35;100289.41;;;33.28;24.06
33075;BME280;19433;51.292;6.868;2023-07-22T10:37:00;100290.56;;;32.30;25.36
33075;BME280;19433;51.292;6.868;2023-07-22T10:39:29;100289.50;;;32.34;25.62
33075;BME280;19433;51.292;6.868;2023-07-22T10:42:24;100292.63;;;33.27;24.08
33075;BME280;19433;51.292;6.868;2023-07-22T10:44:49;100292.22;;;31.98;25.66
33075;BME280;19433;51.292;6.868;2023-07-22T10:47:31;100276.41;;;32.58;24.71
33075;BME280;19433;51.292;6.868;2023-07-22T10:50:05;100279.38;;;34.18;23.47
33075;BME280;19433;51.292;6.868;2023-07-22T10:52:39;100284.59;;;33.44;23.06
33075;BME280;19433;51.292;6.868;2023-07-22T10:55:17;100280.09;;;32.58;24.38
33075;BME280;19433;51.292;6.868;2023-07-22T10:57:54;100267.53;;;33.36;23.83
33075;BME280;19433;51.292;6.868;2023-07-22T11:00:21;100264.84;;;33.15;23.84
33075;BME280;19433;51.292;6.868;2023-07-22T11:03:08;100251.34;;;32.55;24.30
33075;BME280;19433;51.292;6.868;2023-07-22T11:05:53;100261.34;;;33.62;23.27
33075;BME280;19433;51.292;6.868;2023-07-22T11:08:39;100265.19;;;35.74;21.60
33075;BME280;19433;51.292;6.868;2023-07-22T11:11:05;100267.13;;;34.33;22.76
33075;BME280;19433;51.292;6.868;2023-07-22T11:13:37;100264.91;;;33.99;22.79
33075;BME280;19433;51.292;6.868;2023-07-22T11:16:02;100250.97;;;34.13;22.65
33075;BME280;19433;51.292;6.868;2023-07-22T11:18:41;100263.44;;;32.97;23.77
33075;BME280;19433;51.292;6.868;2023-07-22T11:21:09;100240.03;;;31.56;24.86
33075;BME280;19433;51.292;6.868;2023-07-22T11:23:34;100232.84;;;30.20;26.75
33075;BME280;19433;51.292;6.868;2023-07-22T11:26:01;100240.47;;;30.36;27.03
33075;BME280;19433;51.292;6.868;2023-07-22T11:28:27;100233.66;;;29.39;27.50
33075;BME280;19433;51.292;6.868;2023-07-22T11:30:52;100241.16;;;29.78;27.54
33075;BME280;19433;51.292;6.868;2023-07-22T11:33:18;100230.88;;;30.79;26.18
33075;BME280;19433;51.292;6.868;2023-07-22T11:35:44;100235.03;;;32.31;24.37
33075;BME280;19433;51.292;6.868;2023-07-22T11:38:11;100237.66;;;32.48;23.68
33075;BME280;19433;51.292;6.868;2023-07-22T11:40:37;100235.78;;;30.99;25.23
33075;BME280;19433;51.292;6.868;2023-07-22T11:43:02;100243.06;;;30.88;24.63
33075;BME280;19433;51.292;6.868;2023-07-22T11:45:27;100237.44;;;30.71;25.14
33075;BME280;19433;51.292;6.868;2023-07-22T11:47:53;100234.91;;;30.78;25.01
33075;BME280;19433;51.292;6.868;2023-07-22T11:50:18;100236.84;;;32.35;23.69
33075;BME280;19433;51.292;6.868;2023-07-22T11:52:50;100229.28;;;31.73;23.56
33075;BME280;19433;51.292;6.868;2023-07-22T11:55:15;100230.16;;;31.11;23.95
33075;BME280;19433;51.292;6.868;2023-07-22T11:57:40;100227.75;;;31.55;24.71
33075;BME280;19433;51.292;6.868;2023-07-22T12:00:08;100216.50;;;32.04;23.99
33075;BME280;19433;51.292;6.868;2023-07-22T12:02:35;100212.75;;;32.36;23.68
33075;BME280;19433;51.292;6.868;2023-07-22T12:05:05;100217.22;;;33.50;22.56
33075;BME280;19433;51.292;6.868;2023-07-22T12:07:32;100219.38;;;33.53;22.72
33075;BME280;19433;51.292;6.868;2023-07-22T12:10:00;100208.56;;;32.58;22.87
33075;BME280;19433;51.292;6.868;2023-07-22T12:12:36;100203.81;;;32.50;23.89
33075;BME280;19433;51.292;6.868;2023-07-22T12:15:09;100208.66;;;32.13;24.56
33075;BME280;19433;51.292;6.868;2023-07-22T12:17:53;100201.13;;;32.08;24.37
33075;BME280;19433;51.292;6.868;2023-07-22T12:20:22;100189.50;;;31.68;24.81
33075;BME280;19433;51.292;6.868;2023-07-22T12:22:48;100190.56;;;32.70;24.85
33075;BME280;19433;51.292;6.868;2023-07-22T12:25:13;100198.03;;;34.26;23.36
33075;BME280;19433;51.292;6.868;2023-07-22T12:27:39;100201.56;;;35.56;21.69
33075;BME280;19433;51.292;6.868;2023-07-22T12:30:05;100193.03;;;34.23;22.61
33075;BME280;19433;51.292;6.868;2023-07-22T12:32:30;100179.84;;;33.59;23.81
33075;BME280;19433;51.292;6.868;2023-07-22T12:34:56;100194.16;;;33.31;23.79
33075;BME280;19433;51.292;6.868;2023-07-22T12:37:21;100183.25;;;31.99;24.09
33075;BME280;19433;51.292;6.868;2023-07-22T12:39:46;100180.09;;;32.25;24.35
33075;BME280;19433;51.292;6.868;2023-07-22T12:42:12;100168.72;;;31.47;25.21
33075;BME280;19433;51.292;6.868;2023-07-22T12:44:37;100169.19;;;31.16;24.79
33075;BME280;19433;51.292;6.868;2023-07-22T12:47:02;100165.13;;;30.17;26.01